createdAt,value
2023-04-16T00:00:56.257Z,-1.63
2023-04-16T00:06:00.981Z,-1.69
2023-04-16T00:11:04.189Z,-1.78
2023-04-16T00:16:08.347Z,-1.89
2023-04-16T00:21:13.192Z,-1.99
2023-04-16T00:26:17.020Z,-2.06
2023-04-16T00:31:27.358Z,-2.08
2023-04-16T00:36:32.168Z,-2.09
2023-04-16T00:41:35.447Z,-2.11
2023-04-16T00:46:39.903Z,-2.19
2023-04-16T00:51:44.619Z,-2.12
2023-04-16T00:56:48.322Z,-2.19
2023-04-16T01:01:51.841Z,-2.20
2023-04-16T01:06:56.742Z,-2.29
2023-04-16T01:12:00.163Z,-2.39
2023-04-16T01:17:03.986Z,-2.46
2023-04-16T01:22:09.189Z,-2.49
2023-04-16T01:27:12.627Z,-2.51
2023-04-16T01:32:16.136Z,-2.59
2023-04-16T01:37:21.016Z,-2.65
2023-04-16T01:42:24.278Z,-2.66
2023-04-16T01:47:27.706Z,-2.67
2023-04-16T01:52:32.965Z,-2.70
2023-04-16T01:57:36.401Z,-2.70
2023-04-16T02:02:40.048Z,-2.71
2023-04-16T02:07:45.081Z,-2.75
2023-04-16T02:12:48.261Z,-2.80
2023-04-16T02:17:56.758Z,-2.84
2023-04-16T02:23:01.599Z,-2.95
2023-04-16T02:28:05.424Z,-3.03
2023-04-16T02:33:10.612Z,-3.05
2023-04-16T02:38:15.260Z,-3.06
2023-04-16T02:43:18.494Z,-3.07
2023-04-16T02:48:21.826Z,-3.08
2023-04-16T02:53:26.709Z,-3.03
2023-04-16T02:58:30.453Z,-2.99
2023-04-16T03:03:33.857Z,-2.91
2023-04-16T03:08:38.715Z,-2.83
2023-04-16T03:13:41.909Z,-2.75
2023-04-16T03:18:45.493Z,-2.56
2023-04-16T03:23:50.072Z,-2.29
2023-04-16T03:28:53.748Z,-2.04
2023-04-16T03:33:57.213Z,-1.77
2023-04-16T03:39:02.076Z,-1.49
2023-04-16T03:44:05.407Z,-1.22
2023-04-16T03:49:09.042Z,-0.88
2023-04-16T03:54:13.891Z,-0.50
2023-04-16T03:59:17.307Z,-0.11
2023-04-16T04:04:20.588Z,0.26
2023-04-16T04:09:25.572Z,0.58
2023-04-16T04:14:28.894Z,0.89
2023-04-16T04:19:32.094Z,1.26
2023-04-16T04:24:37.286Z,1.73
2023-04-16T04:29:40.649Z,2.08
2023-04-16T04:34:43.862Z,2.23
2023-04-16T04:39:48.926Z,2.43
2023-04-16T04:44:52.501Z,2.60
2023-04-16T04:49:56.005Z,2.71
2023-04-16T04:55:00.833Z,2.82
2023-04-16T05:00:04.482Z,3.01
2023-04-16T05:05:10.961Z,3.25
2023-04-16T05:10:15.837Z,3.67
2023-04-16T05:15:19.050Z,4.17
2023-04-16T05:20:22.910Z,4.71
2023-04-16T05:25:27.982Z,5.03
2023-04-16T05:30:31.257Z,5.56
2023-04-16T05:35:35.143Z,6.14
2023-04-16T05:40:40.144Z,6.61
2023-04-16T05:45:43.552Z,7.20
2023-04-16T05:50:46.892Z,7.48
2023-04-16T05:55:52.166Z,7.61
2023-04-16T06:00:55.575Z,7.61
2023-04-16T06:05:58.885Z,7.80
2023-04-16T06:11:03.743Z,7.90
2023-04-16T06:16:08.079Z,8.04
2023-04-16T06:21:11.498Z,8.33
2023-04-16T06:26:16.374Z,8.62
2023-04-16T06:31:20.455Z,8.93
2023-04-16T06:36:23.987Z,9.35
2023-04-16T06:41:28.852Z,10.12
2023-04-16T06:46:32.792Z,10.74
2023-04-16T06:51:36.374Z,11.83
2023-04-16T06:56:41.109Z,13.26
2023-04-16T07:01:45.215Z,13.80
2023-04-16T07:06:48.534Z,13.02
2023-04-16T07:11:53.333Z,13.01
2023-04-16T07:16:56.887Z,13.34
2023-04-16T07:22:00.426Z,13.53
2023-04-16T07:27:05.538Z,13.65
2023-04-16T07:32:09.715Z,13.54
2023-04-16T07:37:13.226Z,13.65
2023-04-16T07:42:17.901Z,14.29
2023-04-16T07:47:21.276Z,15.09
2023-04-16T07:52:24.625Z,15.97
2023-04-16T07:57:29.277Z,16.34
2023-04-16T08:02:33.285Z,17.07
2023-04-16T08:07:36.619Z,18.02
2023-04-16T08:12:41.500Z,18.92
2023-04-16T08:17:44.793Z,20.88
2023-04-16T08:22:48.373Z,22.17
2023-04-16T08:27:53.083Z,23.90
2023-04-16T08:32:56.685Z,25.27
2023-04-16T08:38:02.359Z,28.09
2023-04-16T08:43:11.546Z,29.62
2023-04-16T08:48:15.235Z,28.72
2023-04-16T08:53:20.437Z,26.52
2023-04-16T08:58:30.753Z,24.87
2023-04-16T09:03:36.436Z,23.61
2023-04-16T09:08:40.768Z,22.44
2023-04-16T09:13:46.151Z,22.97
2023-04-16T09:18:49.509Z,24.86
2023-04-16T09:23:54.645Z,26.81
2023-04-16T09:28:59.573Z,27.84
2023-04-16T09:34:04.562Z,27.12
2023-04-16T09:39:08.106Z,25.85
2023-04-16T09:44:12.825Z,23.50
2023-04-16T09:49:18.822Z,23.47
2023-04-16T09:54:22.212Z,22.96
2023-04-16T09:59:26.868Z,24.88
2023-04-16T10:04:30.415Z,27.45
2023-04-16T10:09:34.736Z,29.44
2023-04-16T10:14:39.707Z,30.85
2023-04-16T10:19:43.512Z,32.16
2023-04-16T10:24:49.107Z,33.63
2023-04-16T10:29:54.061Z,34.71
2023-04-16T10:34:57.370Z,35.97
2023-04-16T10:40:01.097Z,33.37
2023-04-16T10:45:06.523Z,34.84
2023-04-16T10:50:17.571Z,35.97
2023-04-16T10:55:21.375Z,35.65
2023-04-16T11:00:26.259Z,36.33
2023-04-16T11:05:47.115Z,37.16
2023-04-16T11:10:50.458Z,38.19
2023-04-16T11:15:57.936Z,37.97
2023-04-16T11:21:01.509Z,38.32
2023-04-16T11:26:04.968Z,37.22
2023-04-16T11:31:13.777Z,36.95
2023-04-16T11:36:17.416Z,35.19
2023-04-16T11:41:23.069Z,35.38
2023-04-16T11:46:39.549Z,36.28
2023-04-16T11:51:43.694Z,35.95
2023-04-16T11:56:48.865Z,36.84
2023-04-16T12:01:56.331Z,37.41
2023-04-16T12:07:13.009Z,36.25
2023-04-16T12:12:31.618Z,35.29
2023-04-16T12:17:38.038Z,32.28
2023-04-16T12:22:45.181Z,33.07
2023-04-16T12:27:53.289Z,34.99
2023-04-16T12:33:17.240Z,34.47
2023-04-16T12:38:22.839Z,33.79
2023-04-16T12:43:27.677Z,34.41
2023-04-16T12:48:32.709Z,35.11
2023-04-16T12:53:36.414Z,31.61
2023-04-16T12:58:39.647Z,31.34
2023-04-16T13:03:44.732Z,32.37
2023-04-16T13:08:48.305Z,33.39
2023-04-16T13:13:51.892Z,33.48
2023-04-16T13:18:56.640Z,32.50
2023-04-16T13:24:00.859Z,32.12
2023-04-16T13:29:04.116Z,31.35
2023-04-16T13:34:09.126Z,31.78
2023-04-16T13:39:12.696Z,30.72
2023-04-16T13:44:16.564Z,31.26
2023-04-16T13:49:21.553Z,28.78
2023-04-16T13:54:24.979Z,28.17
2023-04-16T13:59:28.474Z,29.29
2023-04-16T14:04:33.300Z,28.40
2023-04-16T14:09:36.833Z,29.58
2023-04-16T14:14:40.311Z,29.05
2023-04-16T14:19:44.989Z,29.02
2023-04-16T14:24:48.462Z,27.60
2023-04-16T14:29:52.429Z,26.23
2023-04-16T14:34:57.417Z,25.87
2023-04-16T14:40:02.020Z,22.56
2023-04-16T14:45:08.274Z,19.45
2023-04-16T14:50:14.227Z,17.81
2023-04-16T14:55:17.901Z,19.12
2023-04-16T15:00:21.897Z,20.08
2023-04-16T15:05:27.349Z,20.99
2023-04-16T15:10:32.882Z,20.84
2023-04-16T15:15:36.251Z,18.49
2023-04-16T15:20:40.977Z,16.45
2023-04-16T15:25:44.285Z,15.14
2023-04-16T15:30:47.565Z,14.23
2023-04-16T15:35:52.831Z,13.45
2023-04-16T15:40:56.130Z,12.95
2023-04-16T15:45:59.545Z,12.45
2023-04-16T15:51:04.387Z,12.12
2023-04-16T15:56:07.858Z,11.77
2023-04-16T16:01:11.197Z,11.43
2023-04-16T16:06:18.181Z,11.13
2023-04-16T16:11:22.010Z,10.82
2023-04-16T16:16:25.425Z,10.50
2023-04-16T16:21:31.237Z,10.15
2023-04-16T16:26:34.782Z,9.80
2023-04-16T16:31:38.665Z,9.51
2023-04-16T16:36:43.818Z,9.25
2023-04-16T16:41:52.220Z,9.05
2023-04-16T16:46:55.556Z,8.93
2023-04-16T16:52:00.271Z,8.87
2023-04-16T16:57:03.616Z,8.81
2023-04-16T17:02:07.070Z,8.75
2023-04-16T17:07:11.886Z,8.65
2023-04-16T17:12:15.556Z,8.54
2023-04-16T17:17:19.117Z,8.23
2023-04-16T17:22:23.891Z,8.23
2023-04-16T17:27:29.515Z,8.14
2023-04-16T17:32:33.670Z,8.07
2023-04-16T17:37:38.684Z,7.82
2023-04-16T17:42:41.905Z,7.76
2023-04-16T17:47:45.485Z,7.57
2023-04-16T17:52:50.169Z,7.40
2023-04-16T17:57:53.690Z,7.26
2023-04-16T18:02:58.845Z,7.25
2023-04-16T18:08:03.679Z,7.26
2023-04-16T18:13:07.161Z,7.20
2023-04-16T18:18:11.003Z,7.08
2023-04-16T18:23:15.863Z,6.91
2023-04-16T18:28:19.270Z,6.62
2023-04-16T18:33:48.776Z,6.34
2023-04-16T18:39:00.162Z,6.18
2023-04-16T18:44:04.966Z,5.96
2023-04-16T18:49:08.430Z,5.80
2023-04-16T18:54:13.394Z,5.67
2023-04-16T18:59:16.932Z,5.59
2023-04-16T19:04:20.595Z,5.58
2023-04-16T19:09:26.585Z,5.56
2023-04-16T19:14:29.925Z,5.48
2023-04-16T19:19:33.404Z,5.38
2023-04-16T19:24:38.167Z,5.27
2023-04-16T19:29:43.743Z,5.20
2023-04-16T19:34:47.388Z,5.13
2023-04-16T19:39:52.146Z,4.99
2023-04-16T19:44:55.894Z,4.77
2023-04-16T19:49:59.082Z,4.51
2023-04-16T19:55:03.935Z,4.27
2023-04-16T20:00:11.574Z,4.07
2023-04-16T20:05:15.140Z,3.86
2023-04-16T20:10:19.941Z,3.64
2023-04-16T20:15:23.513Z,3.46
2023-04-16T20:20:27.454Z,3.29
2023-04-16T20:25:32.372Z,3.13
2023-04-16T20:30:39.038Z,2.97
2023-04-16T20:35:43.007Z,2.79
2023-04-16T20:40:47.889Z,2.64
2023-04-16T20:45:51.237Z,2.57
2023-04-16T20:50:59.776Z,2.56
2023-04-16T20:56:04.692Z,2.59
2023-04-16T21:01:07.969Z,2.57
2023-04-16T21:06:14.516Z,2.49
2023-04-16T21:11:19.182Z,2.34
2023-04-16T21:16:22.563Z,2.31
2023-04-16T21:21:27.792Z,2.22
2023-04-16T21:26:33.980Z,2.17
2023-04-16T21:31:37.317Z,2.13
2023-04-16T21:36:40.648Z,1.96
2023-04-16T21:41:45.392Z,2.04
2023-04-16T21:46:48.743Z,1.95
2023-04-16T21:51:59.176Z,1.91
2023-04-16T21:57:03.926Z,1.90
2023-04-16T22:02:10.077Z,1.91
2023-04-16T22:07:13.926Z,1.99
2023-04-16T22:12:18.546Z,2.11
2023-04-16T22:17:21.813Z,2.23
2023-04-16T22:22:25.078Z,2.32
2023-04-16T22:27:29.892Z,2.34
2023-04-16T22:32:33.372Z,2.33
2023-04-16T22:37:37.050Z,2.26
2023-04-16T22:42:41.656Z,2.24
2023-04-16T22:47:44.884Z,2.26
2023-04-16T22:52:48.223Z,2.36
2023-04-16T22:57:52.872Z,2.52
2023-04-16T23:02:56.230Z,2.65
2023-04-16T23:07:59.646Z,2.81
2023-04-16T23:13:04.302Z,2.90
2023-04-16T23:18:07.677Z,2.98
2023-04-16T23:23:10.996Z,3.01
2023-04-16T23:28:15.884Z,3.04
2023-04-16T23:33:19.214Z,3.00
2023-04-16T23:38:22.404Z,2.95
2023-04-16T23:43:26.997Z,2.88
2023-04-16T23:48:30.517Z,2.87
2023-04-16T23:53:33.854Z,2.78
2023-04-16T23:58:38.627Z,2.72
